Time;durP1;ratioP1;P1;durP2;ratioP2;P2;SDS_P1;SDS_P2;PMS_P1;PMS_P2;Temp;Humidity;BMP_temperature;BMP_pressure;BME280_temperature;BME280_humidity;BME280_pressure;Samples;Min_cycle;Max_cycle;Signal;HPM_P1;HPM_P2
2022/05/08 00:01:03;;;;;;;6.80;2.70;;;;;;;7.88;33.67;101417.51;117304;1185;22926;-46
2022/05/08 00:03:32;;;;;;;4.90;2.50;;;;;;;7.89;33.63;101416.99;117148;1184;21839;-46
2022/05/08 00:06:07;;;;;;;7.00;2.30;;;;;;;7.87;33.85;101420.81;117275;1186;23468;-46
2022/05/08 00:08:36;;;;;;;3.90;2.00;;;;;;;7.84;33.69;101418.65;117134;1186;21850;-53
2022/05/08 00:11:05;;;;;;;6.30;2.50;;;;;;;7.79;33.87;101418.91;117324;1185;21836;-54
2022/05/08 00:13:35;;;;;;;4.50;2.70;;;;;;;7.73;33.99;101420.05;117305;1186;22921;-46
2022/05/08 00:16:04;;;;;;;4.70;2.40;;;;;;;7.70;33.99;101415.48;117294;1186;21890;-53
2022/05/08 00:18:33;;;;;;;4.20;2.20;;;;;;;7.68;34.04;101416.15;117314;1185;22924;-54
2022/05/08 00:21:01;;;;;;;8.20;2.40;;;;;;;7.67;34.25;101419.27;117323;1185;21851;-55
2022/05/08 00:23:29;;;;;;;5.00;2.00;;;;;;;7.67;34.26;101417.53;117294;1186;21886;-46
2022/05/08 00:25:57;;;;;;;9.40;2.30;;;;;;;7.70;34.45;101416.53;117153;1186;23551;-46
2022/05/08 00:28:26;;;;;;;6.40;2.30;;;;;;;7.75;34.62;101411.16;117270;1186;24166;-53
2022/05/08 00:30:55;;;;;;;5.00;2.00;;;;;;;7.82;34.65;101413.21;117315;1185;23471;-46
2022/05/08 00:33:23;;;;;;;6.30;2.50;;;;;;;7.90;34.71;101419.45;117337;1183;23723;-46
2022/05/08 00:35:53;;;;;;;4.50;1.90;;;;;;;7.94;34.71;101414.45;117331;1185;23445;-54
2022/05/08 00:38:22;;;;;;;3.80;1.70;;;;;;;7.94;34.71;101413.75;117299;1185;23445;-46
2022/05/08 00:40:50;;;;;;;3.60;1.90;;;;;;;7.96;34.57;101415.17;117337;1185;24171;-55
2022/05/08 00:43:34;;;;;;;4.20;2.10;;;;;;;7.99;34.75;101410.16;117307;1185;23472;-46
2022/05/08 00:46:08;;;;;;;5.20;2.00;;;;;;;8.05;34.92;101414.59;117282;1185;21887;-46
2022/05/08 00:48:37;;;;;;;5.60;2.50;;;;;;;8.09;34.88;101412.92;117313;1185;21852;-54
2022/05/08 00:51:10;;;;;;;5.70;2.10;;;;;;;8.07;34.83;101409.58;117287;1185;23452;-46
2022/05/08 00:53:43;;;;;;;4.60;2.30;;;;;;;7.97;34.57;101410.64;117369;1185;22826;-47
2022/05/08 00:56:13;;;;;;;4.40;2.10;;;;;;;7.88;34.69;101411.23;117279;1185;23494;-54
2022/05/08 00:58:42;;;;;;;5.30;2.20;;;;;;;7.82;34.85;101408.48;117215;1186;21857;-47
2022/05/08 01:01:10;;;;;;;5.20;2.00;;;;;;;7.74;34.78;101410.80;117264;1186;23544;-46
2022/05/08 01:03:40;;;;;;;4.80;2.20;;;;;;;7.66;34.87;101413.14;117664;1187;21859;-55
2022/05/08 01:06:12;;;;;;;4.90;2.40;;;;;;;7.57;34.87;101410.90;117110;1185;21846;-55
2022/05/08 01:08:46;;;;;;;3.50;2.20;;;;;;;7.46;34.89;101411.06;116998;1186;23454;-48
2022/05/08 01:11:14;;;;;;;3.60;2.00;;;;;;;7.32;34.76;101404.88;117553;1186;21858;-54
2022/05/08 01:13:43;;;;;;;5.10;2.60;;;;;;;7.23;35.06;101402.27;117166;1186;22904;-54
2022/05/08 01:16:16;;;;;;;4.90;2.30;;;;;;;7.18;35.08;101406.38;117158;1185;22810;-47
2022/05/08 01:18:45;;;;;;;6.30;2.90;;;;;;;7.16;35.22;101399.88;117122;1186;23653;-54
2022/05/08 01:21:14;;;;;;;7.10;3.60;;;;;;;7.17;35.28;101407.75;117307;1186;23462;-54
2022/05/08 01:23:43;;;;;;;6.10;2.40;;;;;;;7.17;35.48;101409.33;117294;1185;24299;-47
2022/05/08 01:26:11;;;;;;;8.70;2.40;;;;;;;7.17;35.39;101409.49;117165;1186;21859;-54
2022/05/08 01:28:40;;;;;;;4.70;2.20;;;;;;;7.18;35.46;101411.27;116945;1186;22899;-54
2022/05/08 01:31:08;;;;;;;4.00;2.20;;;;;;;7.19;35.59;101408.31;117015;1186;21850;-54
2022/05/08 01:33:38;;;;;;;5.50;2.30;;;;;;;7.19;35.57;101405.17;117011;1187;24173;-46
2022/05/08 01:36:06;;;;;;;4.70;2.60;;;;;;;7.12;35.67;101407.14;117095;1186;24165;-46
2022/05/08 01:38:35;;;;;;;5.60;2.80;;;;;;;7.06;35.61;101402.67;116939;1186;24195;-54
2022/05/08 01:41:05;;;;;;;5.50;2.70;;;;;;;7.05;35.47;101403.53;117082;1184;21867;-54
2022/05/08 01:43:36;;;;;;;7.50;3.20;;;;;;;7.01;35.56;101401.38;117056;1187;22960;-52
2022/05/08 01:46:05;;;;;;;8.20;3.10;;;;;;;7.02;35.86;101401.89;117309;1182;21893;-54
2022/05/08 01:48:33;;;;;;;7.60;3.10;;;;;;;7.06;35.84;101402.84;117364;1185;21849;-54
2022/05/08 01:51:04;;;;;;;10.00;3.60;;;;;;;7.12;35.97;101406.10;117251;1186;23534;-55
2022/05/08 01:53:35;;;;;;;9.70;3.70;;;;;;;7.17;36.18;101406.36;117044;1185;23478;-54
2022/05/08 01:56:07;;;;;;;10.10;3.40;;;;;;;7.22;36.18;101408.02;116915;1189;21852;-55
2022/05/08 01:58:36;;;;;;;6.50;3.30;;;;;;;7.26;36.30;101407.23;117189;1186;23462;-52
2022/05/08 02:01:07;;;;;;;6.00;3.40;;;;;;;7.31;36.22;101409.39;117196;1186;21858;-54
2022/05/08 02:03:36;;;;;;;10.10;3.20;;;;;;;7.34;36.23;101405.27;117294;1185;23062;-54
2022/05/08 02:06:05;;;;;;;8.50;2.70;;;;;;;7.36;36.24;101410.02;117443;1184;22778;-54
2022/05/08 02:20:08;;;;;;;6.40;3.40;;;;;;;6.82;36.37;101415.63;115240;1203;556286;-56
2022/05/08 02:22:38;;;;;;;9.20;3.40;;;;;;;6.95;36.11;101412.06;116885;1189;22989;-57
2022/05/08 02:25:07;;;;;;;5.90;3.00;;;;;;;6.96;36.18;101413.30;116737;1191;23677;-55
2022/05/08 02:27:38;;;;;;;12.40;3.90;;;;;;;6.97;36.34;101412.30;116765;1191;22644;-55
2022/05/08 02:30:10;;;;;;;6.60;3.40;;;;;;;6.96;36.30;101419.05;116721;1191;23470;-54
2022/05/08 02:32:40;;;;;;;5.40;3.40;;;;;;;6.91;36.21;101426.64;116780;1193;21859;-55
2022/05/08 02:35:12;;;;;;;11.30;3.60;;;;;;;6.88;36.62;101428.84;116871;1189;23605;-54
2022/05/08 02:37:40;;;;;;;7.90;3.40;;;;;;;6.85;36.56;101426.19;116750;1191;23564;-55
2022/05/08 02:40:09;;;;;;;9.30;3.40;;;;;;;6.83;36.61;101429.80;116784;1190;22928;-56
2022/05/08 02:42:38;;;;;;;6.30;3.10;;;;;;;6.80;36.51;101435.34;116779;1190;24152;-55
2022/05/08 02:45:10;;;;;;;7.30;3.60;;;;;;;6.78;36.66;101433.89;116712;1191;21853;-55
2022/05/08 02:47:38;;;;;;;6.90;3.30;;;;;;;6.80;36.91;101436.91;116729;1190;21877;-55
2022/05/08 02:50:09;;;;;;;7.70;2.90;;;;;;;6.87;36.95;101435.45;116809;1191;23444;-56
2022/05/08 02:52:41;;;;;;;8.30;3.40;;;;;;;6.95;37.03;101436.30;116760;1191;21855;-56
2022/05/08 03:00:47;;;;;;;5.00;2.30;;;;;;;6.77;36.73;101440.33;116720;1191;22828;-55
2022/05/08 03:03:16;;;;;;;6.10;2.60;;;;;;;6.70;36.89;101442.45;116791;1191;23532;-55
2022/05/08 03:05:45;;;;;;;8.10;3.00;;;;;;;6.63;36.94;101446.30;116752;1191;21862;-56
2022/05/08 03:08:15;;;;;;;9.50;3.30;;;;;;;6.59;37.16;101447.27;116720;1191;23570;-55
2022/05/08 03:13:39;;;;;;;4.50;2.60;;;;;;;6.69;37.51;101455.16;116734;1191;21907;-55
2022/05/08 03:16:08;;;;;;;8.10;3.40;;;;;;;6.80;37.64;101457.65;117852;1190;21883;-55
2022/05/08 03:18:40;;;;;;;8.20;3.70;;;;;;;6.91;37.65;101456.83;116783;1190;21864;-48
2022/05/08 03:21:09;;;;;;;15.90;3.80;;;;;;;7.03;37.62;101453.39;116745;1189;22019;-49
2022/05/08 03:23:38;;;;;;;14.10;3.90;;;;;;;7.16;37.88;101449.63;116828;1191;21926;-55
2022/05/08 03:26:07;;;;;;;7.80;4.10;;;;;;;7.31;37.99;101452.18;116792;1191;23586;-56
2022/05/08 03:28:38;;;;;;;7.80;3.70;;;;;;;7.46;38.12;101452.45;116818;1191;23560;-49
2022/05/08 03:31:06;;;;;;;;;;;;;;;7.60;38.14;101452.17;116744;1189;24254;-49
2022/05/08 03:33:36;;;;;;;9.60;3.40;;;;;;;7.75;38.41;101457.48;116797;1191;21867;-49
2022/05/08 03:36:05;;;;;;;8.00;3.50;;;;;;;7.89;38.21;101455.96;116772;1190;23760;-49
2022/05/08 03:38:35;;;;;;;19.10;5.20;;;;;;;8.03;38.34;101460.38;116779;1189;21853;-54
2022/05/08 03:41:03;;;;;;;13.60;4.70;;;;;;;8.18;38.50;101460.60;116917;1189;21849;-50
2022/05/08 03:43:32;;;;;;;15.50;3.80;;;;;;;8.33;38.51;101457.68;116866;1191;23573;-54
2022/05/08 03:46:00;;;;;;;10.40;3.60;;;;;;;8.50;38.70;101458.61;116806;1191;21856;-55
2022/05/08 03:48:29;;;;;;;9.20;4.00;;;;;;;8.66;38.65;101457.78;116825;1186;21855;-55
2022/05/08 03:50:58;;;;;;;13.30;5.30;;;;;;;8.81;38.55;101455.87;116871;1189;21974;-49
2022/05/08 03:53:26;;;;;;;6.80;4.20;;;;;;;8.95;38.64;101456.39;116810;1191;23469;-54
2022/05/08 03:55:54;;;;;;;8.40;3.80;;;;;;;9.07;38.66;101454.08;116820;1191;23548;-55
2022/05/08 03:58:22;;;;;;;8.70;4.20;;;;;;;9.20;38.78;101461.93;116851;1189;22825;-55
2022/05/08 04:00:52;;;;;;;11.10;3.60;;;;;;;9.32;38.76;101463.63;116849;1189;23566;-50
2022/05/08 04:03:21;;;;;;;12.10;3.80;;;;;;;9.46;38.86;101464.83;116871;1187;21843;-49
2022/05/08 04:05:49;;;;;;;12.80;3.90;;;;;;;9.61;38.73;101457.59;116748;1191;21860;-55
2022/05/08 04:08:17;;;;;;;9.70;3.10;;;;;;;9.76;38.83;101463.69;116748;1190;23560;-48
2022/05/08 04:10:46;;;;;;;8.80;3.60;;;;;;;9.90;38.80;101460.64;116729;1191;22730;-49
2022/05/08 04:13:14;;;;;;;9.00;3.70;;;;;;;10.05;38.90;101465.85;116830;1191;21898;-55
2022/05/08 04:18:31;;;;;;;13.30;4.00;;;;;;;10.49;39.24;101463.17;116770;1190;23589;-49
2022/05/08 04:20:59;;;;;;;8.30;4.10;;;;;;;10.73;39.36;101465.22;116766;1191;24139;-55
2022/05/08 04:26:15;;;;;;;10.10;2.90;;;;;;;11.19;39.21;101461.52;116776;1191;21846;-51
2022/05/08 04:28:43;;;;;;;10.10;3.70;;;;;;;11.37;39.18;101462.23;116775;1191;23547;-55
2022/05/08 04:31:11;;;;;;;10.10;3.50;;;;;;;11.56;39.41;101462.45;116819;1191;23553;-50
2022/05/08 04:33:40;;;;;;;13.90;4.20;;;;;;;11.79;39.36;101460.88;116815;1191;21895;-50
2022/05/08 04:36:08;;;;;;;9.30;3.90;;;;;;;12.04;39.50;101460.36;116743;1191;23535;-50
2022/05/08 04:38:36;;;;;;;9.80;3.80;;;;;;;12.30;39.55;101458.04;116744;1191;23552;-50
2022/05/08 04:41:05;;;;;;;7.00;3.10;;;;;;;12.55;39.30;101460.09;116756;1191;22944;-55
2022/05/08 04:43:33;;;;;;;7.00;3.00;;;;;;;12.78;39.39;101459.12;116686;1187;21859;-56
2022/05/08 04:46:02;;;;;;;9.70;2.90;;;;;;;13.02;39.36;101456.73;116741;1186;24169;-55
2022/05/08 04:48:31;;;;;;;7.40;2.50;;;;;;;13.29;39.35;101456.03;116662;1187;23455;-51
2022/05/08 04:50:59;;;;;;;8.70;2.60;;;;;;;13.51;39.36;101456.09;116628;1188;23623;-56
2022/05/08 04:53:27;;;;;;;11.60;2.40;;;;;;;13.74;39.22;101456.98;116596;1186;23608;-55
2022/05/08 04:55:58;;;;;;;3.80;1.80;;;;;;;13.99;39.26;101454.30;116617;1188;22036;-51
2022/05/08 04:58:29;;;;;;;5.60;2.70;;;;;;;14.20;39.13;101455.86;116735;1187;23057;-53
2022/05/08 05:00:58;;;;;;;5.30;2.00;;;;;;;14.39;39.01;101457.95;116664;1188;23561;-51
2022/05/08 05:03:26;;;;;;;7.70;2.00;;;;;;;14.55;38.92;101464.14;116546;1187;21851;-51
2022/05/08 05:05:54;;;;;;;6.90;1.90;;;;;;;14.71;38.81;101466.09;116602;1188;24166;-51
2022/05/08 05:08:23;;;;;;;4.80;2.00;;;;;;;14.90;38.66;101465.33;116725;1188;24165;-56
2022/05/08 05:10:51;;;;;;;3.80;1.90;;;;;;;15.07;38.58;101463.15;116729;1188;24155;-51
2022/05/08 05:13:19;;;;;;;6.70;2.70;;;;;;;15.20;38.48;101459.64;116640;1188;21851;-52
2022/05/08 05:15:49;;;;;;;6.40;2.20;;;;;;;15.37;38.56;101463.09;116625;1188;24462;-56
2022/05/08 05:18:17;;;;;;;6.60;2.10;;;;;;;15.58;38.41;101462.08;116662;1188;23577;-56
2022/05/08 05:20:45;;;;;;;8.10;2.60;;;;;;;15.77;38.45;101463.01;116599;1188;21874;-52
2022/05/08 05:23:14;;;;;;;6.20;2.20;;;;;;;15.93;38.16;101462.93;116644;1187;21857;-52
2022/05/08 05:25:42;;;;;;;5.10;1.90;;;;;;;16.07;38.08;101462.34;116723;1191;23551;-52
2022/05/08 05:28:10;;;;;;;8.30;2.00;;;;;;;16.24;38.06;101463.11;116732;1191;23541;-54
2022/05/08 05:30:39;;;;;;;3.80;1.70;;;;;;;16.44;37.94;101452.62;116844;1189;23815;-52
2022/05/08 05:33:07;;;;;;;5.20;1.90;;;;;;;16.62;37.89;101451.38;116793;1190;23547;-52
2022/05/08 05:35:37;;;;;;;6.50;2.10;;;;;;;16.83;37.88;101453.23;116685;1191;23566;-55
2022/05/08 05:38:08;;;;;;;5.00;1.90;;;;;;;17.07;37.74;101451.36;116732;1192;23492;-55
2022/05/08 05:40:36;;;;;;;4.00;1.70;;;;;;;17.29;37.73;101450.31;116897;1188;21871;-56
2022/05/08 05:43:04;;;;;;;7.90;2.10;;;;;;;17.52;37.64;101449.77;116944;1188;23545;-55
2022/05/08 05:45:34;;;;;;;4.50;1.60;;;;;;;17.69;37.41;101450.07;116974;1188;24148;-53
2022/05/08 05:48:03;;;;;;;4.60;1.80;;;;;;;17.90;37.44;101449.19;116906;1188;24310;-53
2022/05/08 05:50:31;;;;;;;8.30;3.00;;;;;;;18.15;37.25;101449.10;116895;1188;21861;-54
2022/05/08 05:52:59;;;;;;;4.90;1.70;;;;;;;18.26;37.03;101451.11;116745;1189;21862;-54
2022/05/08 05:55:27;;;;;;;5.60;2.30;;;;;;;18.32;36.82;101449.55;116956;1189;21845;-54
2022/05/08 05:57:55;;;;;;;5.40;1.60;;;;;;;18.48;36.97;101448.17;116848;1189;23548;-56
2022/05/08 06:00:24;;;;;;;5.10;1.50;;;;;;;18.73;37.03;101450.51;116969;1189;22834;-56
2022/05/08 06:02:52;;;;;;;5.90;1.50;;;;;;;19.01;36.96;101443.29;116831;1191;23650;-56
2022/05/08 06:05:20;;;;;;;4.40;1.60;;;;;;;19.27;36.94;101447.84;117012;1189;23567;-57
2022/05/08 06:07:48;;;;;;;5.30;1.70;;;;;;;19.51;36.76;101447.96;116858;1189;23643;-56
2022/05/08 06:10:17;;;;;;;4.60;1.60;;;;;;;19.68;36.52;101444.02;116891;1189;23569;-56
2022/05/08 06:12:45;;;;;;;6.50;2.30;;;;;;;19.79;36.45;101444.56;116963;1189;23570;-55
2022/05/08 06:15:14;;;;;;;5.40;2.10;;;;;;;19.96;36.38;101441.50;116873;1188;24163;-55
2022/05/08 06:17:43;;;;;;;5.30;2.10;;;;;;;20.14;36.25;101441.73;116782;1188;22934;-55
2022/05/08 06:20:12;;;;;;;5.10;1.70;;;;;;;20.34;36.30;101437.32;116785;1189;23448;-56
2022/05/08 06:22:40;;;;;;;5.00;2.00;;;;;;;20.59;36.26;101435.88;116854;1189;23544;-56
2022/05/08 06:25:09;;;;;;;8.80;1.80;;;;;;;20.91;36.19;101431.80;116797;1190;23543;-55
2022/05/08 06:27:38;;;;;;;9.90;2.00;;;;;;;21.21;36.00;101430.66;116833;1191;23708;-54
2022/05/08 06:30:07;;;;;;;7.70;1.50;;;;;;;21.49;36.00;101428.81;116806;1187;22925;-55
2022/05/08 06:32:36;;;;;;;;;;;;;;;21.78;35.92;101428.88;116730;1191;21874;-54
2022/05/08 06:35:25;;;;;;;3.20;1.60;;;;;;;22.09;35.99;101423.98;116765;1191;23537;-54
2022/05/08 06:37:54;;;;;;;4.40;1.40;;;;;;;22.41;35.64;101420.95;117339;1184;23566;-56
2022/05/08 06:40:23;;;;;;;4.00;1.80;;;;;;;22.61;35.26;101423.82;117329;1184;22974;-55
2022/05/08 06:42:51;;;;;;;6.30;2.70;;;;;;;22.74;35.16;101424.27;117400;1182;21909;-56
2022/05/08 06:45:24;;;;;;;6.70;2.20;;;;;;;22.86;34.98;101420.84;117395;1186;23537;-55
2022/05/08 06:47:53;;;;;;;4.80;1.70;;;;;;;23.01;34.98;101418.70;117427;1185;22957;-56
2022/05/08 06:50:22;;;;;;;6.20;1.90;;;;;;;23.21;34.88;101418.69;117435;1185;24119;-57
2022/05/08 06:52:50;;;;;;;4.40;2.00;;;;;;;23.35;34.53;101420.70;117431;1186;21904;-54
2022/05/08 06:55:19;;;;;;;5.80;1.70;;;;;;;23.45;34.41;101423.77;117298;1186;23563;-55
2022/05/08 06:57:47;;;;;;;4.30;1.70;;;;;;;23.67;34.49;101422.33;117363;1185;23541;-55
2022/05/08 07:03:07;;;;;;;4.80;1.50;;;;;;;24.04;33.93;101426.17;117379;1186;23598;-56
2022/05/08 07:05:40;;;;;;;12.70;1.70;;;;;;;24.05;33.60;101425.97;117374;1186;21836;-56
2022/05/08 07:08:08;;;;;;;4.80;2.00;;;;;;;23.95;33.31;101421.60;117359;1186;22528;-56
2022/05/08 07:10:36;;;;;;;3.20;1.30;;;;;;;23.83;32.89;101422.22;117388;1185;23585;-58
2022/05/08 07:13:05;;;;;;;2.50;1.30;;;;;;;23.69;32.58;101422.59;117447;1186;23560;-58
2022/05/08 07:15:36;;;;;;;;;;;;;;;23.43;31.95;101424.60;117364;1185;22955;-55
2022/05/08 07:18:24;;;;;;;6.10;1.80;;;;;;;23.10;31.84;101424.03;117326;1186;23559;-56
2022/05/08 07:20:52;;;;;;;6.00;1.90;;;;;;;22.98;31.86;101422.77;117329;1185;24157;-56
2022/05/08 07:23:21;;;;;;;3.40;1.60;;;;;;;22.97;31.84;101422.69;117412;1187;23566;-57
2022/05/08 07:25:49;;;;;;;7.80;2.20;;;;;;;22.94;31.69;101419.79;117381;1185;23554;-57
2022/05/08 07:28:17;;;;;;;4.40;1.80;;;;;;;22.96;31.68;101420.73;117344;1186;24158;-56
2022/05/08 07:30:45;;;;;;;5.40;2.60;;;;;;;23.00;31.34;101421.80;117309;1185;23557;-57
2022/05/08 07:33:16;;;;;;;4.90;1.90;;;;;;;23.07;31.63;101421.30;117391;1185;21847;-57
2022/05/08 07:38:35;;;;;;;4.90;2.30;;;;;;;23.30;31.36;101421.48;117426;1184;23569;-58
2022/05/08 07:41:03;;;;;;;9.60;3.10;;;;;;;23.29;31.22;101420.62;117450;1184;21958;-58
2022/05/08 07:43:32;;;;;;;5.00;2.20;;;;;;;23.30;31.20;101420.73;117436;1185;22822;-56
2022/05/08 07:46:00;;;;;;;5.40;2.50;;;;;;;23.42;31.29;101420.16;117456;1184;23649;-57
2022/05/08 07:48:28;;;;;;;7.60;3.30;;;;;;;23.77;31.68;101422.36;117355;1186;23531;-55
2022/05/08 07:50:59;;;;;;;10.00;2.70;;;;;;;24.29;31.87;101415.34;117372;1185;23563;-56
2022/05/08 07:53:28;;;;;;;;;;;;;;;24.82;31.77;101409.64;117406;1184;21960;-56
2022/05/08 07:55:58;;;;;;;5.30;2.70;;;;;;;25.04;31.19;101411.65;117354;1185;22639;-56
2022/05/08 07:58:32;;;;;;;8.30;2.90;;;;;;;25.02;30.94;101412.14;117381;1182;21849;-56
2022/05/08 08:01:05;;;;;;;6.80;2.90;;;;;;;25.08;30.88;101406.55;117354;1186;22818;-55
2022/05/08 08:03:34;;;;;;;5.40;2.50;;;;;;;25.19;30.78;101406.67;117335;1185;21913;-56
2022/05/08 08:06:04;;;;;;;5.80;3.20;;;;;;;25.33;30.71;101399.96;117365;1185;23450;-56
2022/05/08 08:08:38;;;;;;;13.00;3.80;;;;;;;25.60;31.04;101401.08;117206;1185;22799;-56
2022/05/08 08:11:08;;;;;;;8.40;3.20;;;;;;;25.92;30.72;101398.60;117329;1185;21851;-56
2022/05/08 08:13:37;;;;;;;7.20;3.10;;;;;;;25.92;30.43;101398.81;117355;1185;21863;-57
2022/05/08 08:16:07;;;;;;;6.80;3.20;;;;;;;25.83;30.26;101394.86;117279;1185;21847;-55
2022/05/08 08:18:36;;;;;;;8.60;3.10;;;;;;;25.73;29.88;101400.50;117316;1185;22640;-54
2022/05/08 08:21:13;;;;;;;7.60;2.90;;;;;;;25.59;29.75;101401.30;117304;1185;22899;-56
2022/05/08 08:23:42;;;;;;;7.80;2.60;;;;;;;25.51;29.73;101402.17;117315;1188;21853;-55
2022/05/08 08:26:11;;;;;;;6.40;2.70;;;;;;;25.44;29.28;101400.21;117348;1185;21857;-55
2022/05/08 08:28:42;;;;;;;5.80;2.60;;;;;;;25.38;29.32;101403.96;117309;1185;23641;-56
2022/05/08 08:31:10;;;;;;;6.60;3.30;;;;;;;25.36;29.09;101405.89;117334;1186;22824;-56
2022/05/08 08:33:44;;;;;;;5.30;3.10;;;;;;;25.28;29.08;101407.93;117317;1186;22807;-57
2022/05/08 08:36:12;;;;;;;6.20;3.20;;;;;;;25.21;29.15;101403.11;117339;1185;23542;-56
2022/05/08 08:38:40;;;;;;;10.40;4.00;;;;;;;25.27;29.23;101401.38;117291;1185;23544;-56
2022/05/08 08:41:10;;;;;;;6.00;3.10;;;;;;;25.37;29.27;101399.55;118141;1185;24163;-57
2022/05/08 08:49:22;;;;;;;9.10;3.00;;;;;;;26.55;29.55;101399.95;117327;1185;24013;-56
2022/05/08 08:51:50;;;;;;;6.40;2.70;;;;;;;26.94;29.57;101392.80;117360;1185;23543;-58
2022/05/08 08:54:19;;;;;;;6.20;3.00;;;;;;;27.55;30.01;101389.13;117410;1185;24688;-58
2022/05/08 08:56:48;;;;;;;6.50;2.90;;;;;;;28.00;29.32;101393.13;117412;1185;21932;-56
2022/05/08 08:59:23;;;;;;;8.60;3.70;;;;;;;28.22;29.23;101390.31;119125;1186;21929;-58
2022/05/08 09:01:51;;;;;;;5.00;2.70;;;;;;;28.42;29.11;101385.73;117355;1185;21860;-57
2022/05/08 09:04:19;;;;;;;7.80;2.70;;;;;;;28.86;29.44;101380.55;117166;1188;23573;-57
2022/05/08 09:06:48;;;;;;;6.80;2.80;;;;;;;29.52;29.63;101382.48;117368;1185;23539;-57
2022/05/08 09:09:29;;;;;;;6.30;2.80;;;;;;;30.21;29.94;101378.78;117377;1188;22897;-56
2022/05/08 09:11:58;;;;;;;9.40;3.60;;;;;;;30.75;28.95;101375.85;117365;1185;23532;-57
2022/05/08 09:14:33;;;;;;;6.80;3.80;;;;;;;30.55;28.13;101377.73;117422;1185;22915;-57
2022/05/08 09:17:05;;;;;;;12.40;4.10;;;;;;;30.07;28.07;101372.66;117296;1185;21903;-57
2022/05/08 09:19:40;;;;;;;7.90;2.80;;;;;;;29.89;28.47;101368.42;117736;1185;21850;-55
2022/05/08 09:22:09;;;;;;;5.90;2.90;;;;;;;30.29;28.60;101366.61;117352;1185;23627;-54
2022/05/08 09:24:50;;;;;;;7.60;2.90;;;;;;;30.38;27.58;101364.77;117341;1185;21893;-55
2022/05/08 09:27:18;;;;;;;7.50;3.50;;;;;;;29.78;27.21;101367.09;117368;1185;24267;-55
2022/05/08 09:29:47;;;;;;;8.20;3.70;;;;;;;29.31;27.29;101367.23;117383;1186;23415;-57
2022/05/08 09:32:36;;;;;;;4.80;2.50;;;;;;;29.05;27.44;101365.77;117303;1185;23544;-57
2022/05/08 09:35:05;;;;;;;6.30;3.40;;;;;;;28.78;27.01;101366.14;117377;1181;21845;-56
2022/05/08 09:37:50;;;;;;;5.10;3.20;;;;;;;28.38;26.61;101367.56;117329;1185;21845;-56
2022/05/08 09:40:19;;;;;;;9.30;3.70;;;;;;;28.08;26.79;101373.98;117180;1187;23521;-55
2022/05/08 09:42:47;;;;;;;7.20;2.50;;;;;;;27.92;26.76;101368.95;119431;1183;21814;-57
2022/05/08 09:45:15;;;;;;;12.10;3.10;;;;;;;27.80;26.82;101375.20;118827;1185;21857;-56
2022/05/08 09:47:48;;;;;;;11.30;3.60;;;;;;;27.72;26.45;101376.16;118462;1185;24711;-56
2022/05/08 09:50:17;;;;;;;5.50;2.00;;;;;;;27.52;26.30;101374.61;117309;1182;21896;-55
2022/05/08 09:52:45;;;;;;;6.30;1.70;;;;;;;27.47;26.48;101372.42;117374;1185;22971;-55
2022/05/08 09:55:14;;;;;;;6.20;1.80;;;;;;;27.42;26.42;101372.38;117152;1187;24156;-55
2022/05/08 09:57:42;;;;;;;5.40;1.80;;;;;;;27.44;26.62;101372.39;117293;1185;22980;-56
2022/05/08 10:00:16;;;;;;;10.80;2.10;;;;;;;27.41;26.47;101371.36;117337;1184;23541;-55
2022/05/08 10:02:45;;;;;;;7.80;1.50;;;;;;;27.24;26.22;101376.09;117390;1185;22137;-55
2022/05/08 10:05:14;;;;;;;4.50;1.80;;;;;;;27.03;26.25;101375.67;118188;1185;22709;-55
2022/05/08 10:07:43;;;;;;;7.60;1.50;;;;;;;27.09;26.37;101376.19;117352;1184;24178;-56
2022/05/08 10:15:48;;;;;;;4.80;1.90;;;;;;;27.22;25.90;101371.38;117311;1185;21841;-55
2022/05/08 10:18:25;;;;;;;5.90;1.80;;;;;;;27.15;25.84;101373.27;117248;1188;22205;-56
2022/05/08 10:21:01;;;;;;;4.30;1.40;;;;;;;27.34;26.27;101370.73;117366;1186;21866;-55
2022/05/08 10:23:40;;;;;;;5.30;1.60;;;;;;;27.74;26.43;101366.43;117310;1186;23461;-56
2022/05/08 10:26:22;;;;;;;5.30;1.60;;;;;;;28.02;26.09;101364.14;117374;1186;23545;-55
2022/05/08 10:29:02;;;;;;;7.30;1.90;;;;;;;28.10;25.90;101367.56;117356;1185;23569;-56
2022/05/08 10:31:51;;;;;;;5.10;1.60;;;;;;;28.03;25.69;101361.70;117371;1186;23558;-56
2022/05/08 10:34:33;;;;;;;5.30;1.40;;;;;;;28.00;25.82;101358.85;117361;1185;22930;-56
2022/05/08 10:37:11;;;;;;;5.90;1.40;;;;;;;28.36;26.00;101353.61;117323;1186;23557;-55
2022/05/08 10:39:44;;;;;;;3.80;1.50;;;;;;;28.63;25.70;101351.66;117318;1185;21849;-57
2022/05/08 10:42:27;;;;;;;4.30;1.10;;;;;;;28.69;25.58;101353.09;117382;1185;23446;-55
2022/05/08 10:44:56;;;;;;;6.90;2.30;;;;;;;28.70;25.63;101354.29;117369;1186;23532;-55
2022/05/08 10:47:43;;;;;;;2.50;1.40;;;;;;;28.49;25.22;101350.89;117318;1185;21848;-55
2022/05/08 10:50:12;;;;;;;6.40;1.30;;;;;;;28.16;24.07;101348.52;117349;1185;23652;-55
2022/05/08 10:52:42;;;;;;;5.10;1.70;;;;;;;27.81;24.29;101351.17;117383;1188;23007;-55
2022/05/08 10:55:12;;;;;;;4.90;1.60;;;;;;;27.60;24.63;101349.91;117363;1186;22924;-55
2022/05/08 10:57:43;;;;;;;5.40;1.70;;;;;;;27.50;24.74;101349.87;117393;1186;21917;-55
2022/05/08 11:00:15;;;;;;;4.00;1.30;;;;;;;27.63;24.71;101350.04;117250;1186;21880;-56
2022/05/08 11:02:45;;;;;;;4.60;1.40;;;;;;;27.67;24.49;101346.04;117203;1186;21847;-58
2022/05/08 11:05:16;;;;;;;3.20;1.20;;;;;;;27.69;24.67;101349.09;117294;1185;21914;-58
2022/05/08 11:07:50;;;;;;;20.50;3.20;;;;;;;27.75;24.58;101343.66;117219;1185;22202;-57
2022/05/08 11:10:21;;;;;;;3.60;1.30;;;;;;;27.84;24.63;101345.76;117278;1185;24261;-56
2022/05/08 11:13:09;;;;;;;4.70;1.50;;;;;;;27.90;24.51;101345.31;117330;1185;23544;-55
2022/05/08 11:15:45;;;;;;;2.60;1.20;;;;;;;27.99;24.47;101337.85;117347;1180;22812;-56
2022/05/08 11:18:24;;;;;;;3.90;1.50;;;;;;;28.06;24.48;101332.44;117370;1186;23634;-56
2022/05/08 11:20:57;;;;;;;5.40;1.60;;;;;;;28.09;24.38;101331.69;117272;1186;23475;-56
2022/05/08 11:23:27;;;;;;;3.70;1.20;;;;;;;28.12;24.29;101330.95;117258;1186;21861;-55
2022/05/08 11:26:00;;;;;;;2.70;1.40;;;;;;;28.13;24.12;101325.11;117293;1188;21897;-55
2022/05/08 11:28:30;;;;;;;3.30;1.40;;;;;;;28.15;24.17;101324.61;117162;1186;21975;-55
2022/05/08 11:30:59;;;;;;;4.80;1.40;;;;;;;28.24;23.86;101327.95;117224;1186;21853;-56
2022/05/08 11:36:30;;;;;;;3.70;1.30;;;;;;;28.53;24.44;101320.64;117288;1186;24288;-57
2022/05/08 11:39:03;;;;;;;3.90;1.60;;;;;;;28.85;24.24;101315.95;117192;1188;21863;-55
2022/05/08 11:41:36;;;;;;;3.70;1.20;;;;;;;28.90;24.32;101309.25;117198;1188;21855;-57
2022/05/08 11:44:24;;;;;;;5.30;1.20;;;;;;;29.07;24.22;101309.62;117175;1185;23009;-56
2022/05/08 11:46:55;;;;;;;3.20;1.60;;;;;;;29.13;24.01;101303.98;117407;1184;23551;-57
2022/05/08 11:49:26;;;;;;;8.70;1.40;;;;;;;29.32;24.03;101304.13;117332;1186;23558;-57
2022/05/08 11:52:02;;;;;;;6.60;2.00;;;;;;;29.27;23.47;101304.84;117359;1185;22916;-56
2022/05/08 11:54:30;;;;;;;5.50;1.60;;;;;;;29.05;23.46;101302.69;117380;1185;23634;-55
2022/05/08 11:57:13;;;;;;;3.20;1.30;;;;;;;28.89;23.44;101298.33;117355;1185;21855;-55
2022/05/08 11:59:42;;;;;;;7.30;2.00;;;;;;;28.63;23.21;101296.06;117309;1186;21978;-55
2022/05/08 12:02:11;;;;;;;2.20;1.30;;;;;;;28.40;23.24;101293.78;117343;1185;22920;-55
2022/05/08 12:04:41;;;;;;;5.50;2.20;;;;;;;28.30;23.20;101296.64;117374;1185;22917;-55
2022/05/08 12:07:10;;;;;;;;;;;;;;;28.15;23.08;101297.39;117365;1185;21830;-55
2022/05/08 12:09:43;;;;;;;3.70;1.20;;;;;;;28.09;22.99;101294.34;117366;1184;21857;-56
2022/05/08 12:12:28;;;;;;;5.40;1.20;;;;;;;28.13;23.10;101291.42;117338;1185;24163;-55
2022/05/08 12:15:02;;;;;;;2.50;1.20;;;;;;;28.26;23.12;101288.10;117359;1185;21905;-55
2022/05/08 12:17:35;;;;;;;4.60;1.50;;;;;;;28.45;23.26;101281.70;117386;1188;21862;-55
2022/05/08 12:20:11;;;;;;;4.00;1.30;;;;;;;28.59;23.14;101277.80;117328;1185;21880;-55